METAR Data
IDs: Format: Raw Decoded Include TAF

Data at: 0014 UTC 30 May 2020

METAR for:KDVN (Davenport Muni, IA, US)
Text:KDVN 292352Z AUTO 34010KT 10SM BKN046 19/08 A3013 RMK AO2 SLP197 T01890083 10206 20183 51009
Temperature: 18.9°C ( 66°F)
Dewpoint: 8.3°C ( 47°F) [RH = 50%]
Pressure (altimeter):30.13 inches Hg (1020.4 mb) [Sea level pressure: 1019.7 mb]
Winds:from the NNW (340 degrees) at 12 MPH (10 knots; 5.1 m/s)
Visibility:10 or more sm (16+ km)
Ceiling:4600 feet AGL
Clouds: broken clouds at 4600 feet AGL
QC Flag:automated observation with no human augmentation